Time;durP1;ratioP1;P1;durP2;ratioP2;P2;SDS_P1;SDS_P2;PMS_P1;PMS_P2;Temp;Humidity;BMP_temperature;BMP_pressure;BME280_temperature;BME280_humidity;BME280_pressure;Samples;Min_cycle;Max_cycle;Signal;HPM_P1;HPM_P2
2022/07/26 00:03:44;;;;;;;4.30;3.90;;;;;;;20.72;59.99;96244.75;10218148;29;20063;-49
2022/07/26 00:09:04;;;;;;;4.78;4.28;;;;;;;20.72;60.08;96242.03;10227012;28;20522;-48
2022/07/26 00:14:24;;;;;;;4.18;3.78;;;;;;;20.73;60.11;96249.00;10217044;29;20064;-49
2022/07/26 00:19:43;;;;;;;4.18;3.78;;;;;;;20.71;60.04;96235.03;10216861;29;20064;-49
2022/07/26 00:25:06;;;;;;;4.63;4.22;;;;;;;20.72;60.09;96225.03;10216971;29;20055;-50
2022/07/26 00:30:26;;;;;;;5.82;4.28;;;;;;;20.73;60.10;96221.16;10216834;29;20056;-50
2022/07/26 00:35:46;;;;;;;4.63;4.22;;;;;;;20.71;59.94;96202.56;10228540;29;20115;-48
2022/07/26 00:41:05;;;;;;;4.38;3.97;;;;;;;20.72;60.07;96162.78;10215660;29;20542;-49
2022/07/26 00:46:25;;;;;;;8.75;4.95;;;;;;;20.71;60.14;96175.50;10215832;29;20063;-51
2022/07/26 00:51:44;;;;;;;4.82;4.43;;;;;;;20.72;60.12;96204.16;10212886;29;20463;-48
2022/07/26 00:57:04;;;;;;;4.57;4.18;;;;;;;20.73;60.06;96221.94;10215831;29;20084;-49
2022/07/26 01:02:23;;;;;;;4.80;4.40;;;;;;;20.72;60.03;96230.44;10215651;29;20063;-57
2022/07/26 01:07:43;;;;;;;4.63;4.22;;;;;;;20.73;60.08;96232.00;10215364;29;20059;-58
2022/07/26 01:13:02;;;;;;;4.30;4.00;;;;;;;20.72;60.08;96250.16;10213578;28;20052;-58
2022/07/26 01:18:21;;;;;;;5.20;4.70;;;;;;;20.73;60.12;96265.25;10214264;29;20439;-57
2022/07/26 01:23:42;;;;;;;11.02;4.40;;;;;;;20.72;60.09;96274.53;10214708;29;20060;-57
2022/07/26 01:29:02;;;;;;;4.18;3.80;;;;;;;20.73;60.08;96281.50;10214576;29;20060;-57
2022/07/26 01:34:21;;;;;;;4.68;4.28;;;;;;;20.73;60.08;96303.16;10214414;29;20059;-58
2022/07/26 01:39:41;;;;;;;4.70;4.30;;;;;;;20.73;60.06;96322.09;10213784;29;20075;-57
2022/07/26 01:45:01;;;;;;;4.65;4.25;;;;;;;20.74;60.11;96337.22;10212636;29;20059;-58
2022/07/26 01:50:20;;;;;;;5.03;4.63;;;;;;;20.74;60.02;96375.13;10213100;29;20052;-57
2022/07/26 01:55:40;;;;;;;4.82;4.38;;;;;;;20.74;60.05;96391.38;10213183;29;20066;-57
2022/07/26 02:00:59;;;;;;;4.60;4.20;;;;;;;20.74;60.09;96401.41;10226137;28;20456;-58
2022/07/26 02:06:20;;;;;;;5.20;4.70;;;;;;;20.74;60.00;96414.94;10213237;29;20055;-56
2022/07/26 02:11:40;;;;;;;4.68;4.28;;;;;;;20.74;60.09;96409.53;10211469;29;20054;-58
2022/07/26 02:16:59;;;;;;;4.97;4.55;;;;;;;20.73;59.93;96419.53;10212274;29;20051;-57
2022/07/26 02:22:19;;;;;;;5.10;4.60;;;;;;;20.75;60.08;96421.91;10212898;29;20068;-57
2022/07/26 02:27:39;;;;;;;5.10;4.70;;;;;;;20.74;59.95;96423.06;10225242;29;20111;-57
2022/07/26 02:32:58;;;;;;;6.07;4.43;;;;;;;20.74;60.02;96431.97;10212496;29;20115;-58
2022/07/26 02:38:17;;;;;;;4.57;4.18;;;;;;;20.74;60.13;96436.59;10213166;29;20441;-57
2022/07/26 02:43:37;;;;;;;5.35;4.60;;;;;;;20.73;60.03;96437.72;10224690;29;20059;-57
2022/07/26 02:48:56;;;;;;;4.90;4.50;;;;;;;20.76;59.98;96442.47;10212052;29;20056;-57
2022/07/26 02:54:16;;;;;;;4.97;4.57;;;;;;;20.75;60.02;96440.88;10224961;29;20055;-58
2022/07/26 02:59:35;;;;;;;5.32;4.82;;;;;;;20.73;60.07;96452.03;10216597;29;20122;-57
2022/07/26 03:04:55;;;;;;;5.22;4.72;;;;;;;20.74;59.98;96440.09;10219217;29;20055;-58
2022/07/26 03:10:14;;;;;;;5.15;4.53;;;;;;;20.74;60.16;96445.50;10219545;29;20068;-57
2022/07/26 03:15:33;;;;;;;5.10;4.70;;;;;;;20.75;60.02;96446.28;10213797;28;20063;-58
2022/07/26 03:20:53;;;;;;;4.97;4.57;;;;;;;20.74;60.09;96450.13;10201565;29;20371;-58
2022/07/26 03:26:12;;;;;;;5.35;4.85;;;;;;;20.76;60.08;96452.47;10219384;29;20115;-58
2022/07/26 03:31:31;;;;;;;5.15;4.75;;;;;;;20.74;60.06;96452.84;10218965;29;20067;-58
2022/07/26 03:36:50;;;;;;;5.60;5.10;;;;;;;20.74;60.11;96461.75;10218777;29;20548;-57
2022/07/26 03:42:10;;;;;;;5.47;4.97;;;;;;;20.74;60.07;96477.97;10217884;29;20071;-58
2022/07/26 03:47:29;;;;;;;5.82;5.32;;;;;;;20.75;60.12;96484.19;10218324;29;20055;-57
2022/07/26 03:52:48;;;;;;;5.70;5.20;;;;;;;20.75;60.10;96492.31;10231208;28;20508;-58
2022/07/26 03:58:08;;;;;;;5.80;5.30;;;;;;;20.75;60.14;96495.00;10230519;28;20416;-57
2022/07/26 04:03:27;;;;;;;6.10;5.55;;;;;;;20.77;60.13;96511.69;10230275;28;20052;-57
2022/07/26 04:08:46;;;;;;;6.05;5.55;;;;;;;20.76;60.13;96517.44;10229683;28;20055;-57
2022/07/26 04:14:05;;;;;;;7.45;6.57;;;;;;;20.77;60.22;96524.47;10215678;28;20051;-57
2022/07/26 04:19:25;;;;;;;56.42;50.30;;;;;;;20.74;61.72;96534.06;10202256;29;20095;-57
2022/07/26 04:24:44;;;;;;;69.88;62.25;;;;;;;20.72;62.28;96539.81;10211126;29;20063;-57
2022/07/26 04:30:05;;;;;;;77.63;69.15;;;;;;;20.72;62.79;96542.50;10216569;29;20843;-59
2022/07/26 04:35:24;;;;;;;79.13;70.53;;;;;;;20.69;63.07;96535.03;10216212;29;20523;-58
2022/07/26 04:40:44;;;;;;;85.88;73.93;;;;;;;20.70;62.92;96541.28;10216536;29;20515;-60
2022/07/26 04:46:03;;;;;;;90.00;78.05;;;;;;;20.69;63.31;96548.59;10216478;29;20137;-59
2022/07/26 04:51:24;;;;;;;94.03;83.60;;;;;;;20.69;63.41;96551.28;10215872;29;20136;-60
2022/07/26 04:56:44;;;;;;;94.72;84.40;;;;;;;20.68;63.89;96555.13;10215835;29;21136;-60
2022/07/26 05:02:03;;;;;;;94.43;84.40;;;;;;;20.69;63.87;96561.34;10215539;29;20460;-59
2022/07/26 05:07:22;;;;;;;88.63;78.95;;;;;;;20.68;64.42;96565.16;10215115;29;20059;-60
2022/07/26 05:12:42;;;;;;;83.88;72.63;;;;;;;20.68;64.21;96560.56;10227742;29;20048;-60
2022/07/26 05:18:06;;;;;;;74.63;66.57;;;;;;;20.70;64.16;96563.72;10214148;29;20063;-60
2022/07/26 05:23:26;;;;;;;55.80;49.72;;;;;;;20.69;64.21;96567.53;10214887;29;20415;-60
2022/07/26 05:28:45;;;;;;;51.45;45.88;;;;;;;20.69;64.19;96567.53;10214306;29;20056;-59
2022/07/26 05:34:04;;;;;;;40.20;34.53;;;;;;;20.69;63.98;96564.81;10214804;29;20071;-58
2022/07/26 05:39:24;;;;;;;31.13;27.85;;;;;;;20.69;64.10;96577.56;10214094;29;20055;-59
2022/07/26 05:44:43;;;;;;;30.38;27.10;;;;;;;20.68;64.11;96571.38;10213330;29;20534;-59
2022/07/26 05:50:04;;;;;;;23.75;19.17;;;;;;;20.69;64.29;96585.69;10213714;29;20060;-60
2022/07/26 05:55:23;;;;;;;15.75;14.05;;;;;;;20.68;64.17;96582.19;10213701;29;20142;-60
2022/07/26 06:00:43;;;;;;;13.27;11.80;;;;;;;20.68;63.96;96595.75;10213393;29;20067;-59
2022/07/26 06:06:02;;;;;;;11.00;9.75;;;;;;;20.67;63.84;96599.56;10213386;29;20056;-60
2022/07/26 06:11:22;;;;;;;14.75;9.27;;;;;;;20.68;63.95;96608.47;10225902;28;20135;-59
2022/07/26 06:16:42;;;;;;;13.27;8.40;;;;;;;20.67;64.07;96604.97;10218760;28;20049;-60
2022/07/26 06:22:01;;;;;;;8.93;8.02;;;;;;;20.68;64.20;96611.97;10212521;29;20063;-60
2022/07/26 06:27:20;;;;;;;9.13;8.02;;;;;;;20.67;64.06;96606.91;10212576;29;20059;-60
2022/07/26 06:32:43;;;;;;;9.55;7.93;;;;;;;20.67;63.82;96596.84;10224777;28;20659;-61
2022/07/26 06:38:03;;;;;;;9.90;8.18;;;;;;;20.65;63.61;96588.28;10212492;29;20423;-60
2022/07/26 06:43:22;;;;;;;8.35;6.90;;;;;;;20.66;63.74;96606.13;10224642;29;20496;-60
2022/07/26 06:48:42;;;;;;;10.57;6.97;;;;;;;20.67;63.39;96604.97;10201446;29;20056;-58
2022/07/26 06:54:04;;;;;;;9.13;6.82;;;;;;;20.68;63.32;96613.88;10212838;29;20449;-59
2022/07/26 06:59:23;;;;;;;7.50;6.65;;;;;;;20.69;63.06;96615.47;10209602;29;20059;-58
2022/07/26 07:04:42;;;;;;;8.52;6.43;;;;;;;20.70;62.93;96623.25;10200220;29;20123;-59
2022/07/26 07:10:03;;;;;;;7.88;6.32;;;;;;;20.71;62.82;96618.63;10211692;29;20420;-59
2022/07/26 07:15:22;;;;;;;7.65;6.03;;;;;;;20.72;62.85;96631.06;10211470;29;20063;-55
2022/07/26 07:20:42;;;;;;;7.72;6.63;;;;;;;20.73;62.88;96638.81;10211761;29;20060;-62
2022/07/26 07:26:01;;;;;;;19.42;17.40;;;;;;;20.72;62.87;96642.66;10201655;29;20056;-58
2022/07/26 07:31:20;;;;;;;29.25;22.83;;;;;;;20.71;63.11;96646.47;10211540;29;20056;-58
2022/07/26 07:36:40;;;;;;;29.38;24.60;;;;;;;20.67;63.15;96645.56;10223966;29;20066;-59
2022/07/26 07:41:59;;;;;;;28.58;23.83;;;;;;;20.67;63.20;96661.81;10211021;29;20059;-58
2022/07/26 07:47:18;;;;;;;30.05;24.15;;;;;;;20.65;63.14;96663.28;10216226;29;20067;-59
2022/07/26 07:52:38;;;;;;;30.00;22.65;;;;;;;20.64;63.15;96665.22;10218265;29;20056;-58
2022/07/26 07:57:57;;;;;;;27.83;20.42;;;;;;;20.62;62.82;96675.56;10217874;29;20137;-58
2022/07/26 08:03:17;;;;;;;22.95;19.63;;;;;;;20.59;62.53;96676.22;10230615;28;20419;-58
2022/07/26 08:08:37;;;;;;;25.50;18.40;;;;;;;20.60;62.09;96672.41;10230191;28;20415;-59
2022/07/26 08:13:56;;;;;;;21.50;18.02;;;;;;;20.60;62.19;96658.88;10201670;29;20066;-59
2022/07/26 08:19:16;;;;;;;23.67;17.05;;;;;;;20.60;62.27;96660.78;10216945;29;20056;-58
2022/07/26 08:24:35;;;;;;;20.63;16.30;;;;;;;20.62;61.95;96670.16;10216914;29;20745;-58
2022/07/26 08:29:55;;;;;;;20.73;16.45;;;;;;;20.64;61.80;96678.75;10216546;29;20056;-58
2022/07/26 08:35:14;;;;;;;19.33;15.30;;;;;;;20.66;61.74;96673.78;10229371;28;20055;-58
2022/07/26 08:40:34;;;;;;;20.10;15.63;;;;;;;20.68;61.83;96671.53;10216994;28;20063;-58
2022/07/26 08:46:00;;;;;;;21.08;14.73;;;;;;;20.68;61.75;96676.13;10216198;29;20063;-57
2022/07/26 08:51:21;;;;;;;17.63;13.57;;;;;;;20.69;61.70;96680.44;10215496;29;20056;-58
2022/07/26 08:56:49;;;;;;;16.23;12.90;;;;;;;20.70;61.68;96688.22;10215279;29;20063;-58
2022/07/26 09:02:11;;;;;;;14.00;11.55;;;;;;;20.70;61.68;96677.41;10215809;29;20063;-58
2022/07/26 09:07:32;;;;;;;13.73;12.00;;;;;;;20.71;61.63;96676.25;10215537;29;20059;-58
2022/07/26 09:12:56;;;;;;;14.18;10.43;;;;;;;20.72;61.55;96672.44;10215733;29;20119;-58
2022/07/26 09:18:28;;;;;;;14.02;10.63;;;;;;;20.74;61.46;96683.72;10214351;29;20059;-58
2022/07/26 09:23:47;;;;;;;14.57;10.23;;;;;;;20.74;61.47;96667.47;10203666;29;20071;-58
2022/07/26 09:29:09;;;;;;;11.95;10.43;;;;;;;20.74;61.40;96677.53;10207969;29;20048;-58
2022/07/26 09:34:29;;;;;;;11.52;9.57;;;;;;;20.76;61.27;96685.28;10214569;29;20062;-58
2022/07/26 09:39:56;;;;;;;10.60;9.00;;;;;;;20.77;61.32;96670.66;10213531;29;20059;-58
2022/07/26 09:45:16;;;;;;;11.00;8.73;;;;;;;20.78;61.33;96672.22;10213871;29;20134;-58
2022/07/26 09:50:35;;;;;;;9.23;8.23;;;;;;;20.77;61.24;96665.22;10213857;29;20055;-58
2022/07/26 09:55:56;;;;;;;11.00;8.35;;;;;;;20.77;61.19;96657.88;10213565;29;20059;-58
2022/07/26 10:01:15;;;;;;;10.07;8.23;;;;;;;20.79;61.13;96665.69;10224865;28;20526;-58
2022/07/26 10:06:35;;;;;;;10.55;8.05;;;;;;;20.78;61.10;96662.19;10213533;29;20062;-58
2022/07/26 10:11:58;;;;;;;8.77;7.70;;;;;;;20.78;61.21;96667.59;10211624;29;20067;-58
2022/07/26 10:17:29;;;;;;;8.50;7.50;;;;;;;20.78;61.19;96658.66;10216950;29;20062;-58
2022/07/26 10:22:51;;;;;;;8.35;7.13;;;;;;;20.78;61.04;96656.78;10212839;29;20068;-58
2022/07/26 10:28:22;;;;;;;8.32;6.88;;;;;;;20.80;60.95;96642.91;10212939;29;20064;-58
2022/07/26 10:33:46;;;;;;;7.50;6.70;;;;;;;20.79;60.86;96646.72;10212767;29;20060;-59
2022/07/26 10:39:14;;;;;;;8.07;6.90;;;;;;;20.81;60.82;96649.91;10198105;29;20055;-58
2022/07/26 10:44:38;;;;;;;6.83;6.13;;;;;;;20.81;60.76;96656.09;10224834;29;20098;-58
2022/07/26 10:49:58;;;;;;;7.43;6.25;;;;;;;20.80;60.81;96646.41;10211731;29;20518;-57
2022/07/26 10:55:18;;;;;;;7.68;6.50;;;;;;;20.81;60.83;96644.47;10224682;29;20051;-57
2022/07/26 11:00:37;;;;;;;6.32;5.72;;;;;;;20.81;60.67;96645.25;10197838;29;20055;-58
2022/07/26 11:05:56;;;;;;;6.10;5.50;;;;;;;20.81;60.73;96650.69;10203116;29;20056;-58
2022/07/26 11:11:27;;;;;;;6.93;6.07;;;;;;;20.82;60.64;96652.28;10225047;29;20057;-59
2022/07/26 11:16:49;;;;;;;6.13;5.53;;;;;;;20.82;60.55;96646.06;10196709;29;20400;-57
2022/07/26 11:22:08;;;;;;;6.03;5.43;;;;;;;20.82;60.62;96646.84;10207124;29;20111;-59
2022/07/26 11:27:27;;;;;;;6.60;5.88;;;;;;;20.83;60.58;96644.94;10217364;29;20071;-57
2022/07/26 11:32:52;;;;;;;7.30;5.45;;;;;;;20.84;60.55;96649.22;10218575;29;20060;-59
2022/07/26 11:38:11;;;;;;;5.60;5.05;;;;;;;20.84;60.38;96643.81;10231610;28;20052;-59
2022/07/26 11:43:36;;;;;;;6.70;4.97;;;;;;;20.84;60.44;96651.94;10218491;29;20115;-58
2022/07/26 11:48:56;;;;;;;5.30;4.80;;;;;;;20.83;60.36;96643.00;10218193;29;20059;-58
2022/07/26 11:54:15;;;;;;;6.10;4.90;;;;;;;20.84;60.25;96643.81;10205501;29;20056;-58
2022/07/26 11:59:36;;;;;;;6.30;4.57;;;;;;;20.84;60.38;96646.53;10227265;29;20060;-58
2022/07/26 12:05:17;;;;;;;4.88;4.47;;;;;;;20.84;60.18;96627.56;10216254;28;20099;-58
2022/07/26 12:10:37;;;;;;;5.43;4.75;;;;;;;20.85;60.28;96629.13;10228090;28;20067;-58
2022/07/26 12:15:56;;;;;;;5.10;4.60;;;;;;;20.85;60.24;96621.00;10209448;29;20059;-59
2022/07/26 12:21:17;;;;;;;4.80;4.40;;;;;;;20.86;60.18;96619.91;10229701;28;20058;-58
2022/07/26 12:26:38;;;;;;;4.88;4.28;;;;;;;20.86;60.23;96617.97;10216305;29;20464;-57
2022/07/26 12:32:14;;;;;;;4.57;4.18;;;;;;;20.86;60.07;96625.31;10205561;29;20055;-58
2022/07/26 12:37:54;;;;;;;5.78;4.30;;;;;;;20.86;60.03;96615.28;10216708;29;20060;-58
2022/07/26 12:43:14;;;;;;;4.68;4.20;;;;;;;20.85;60.16;96616.38;10216409;29;20056;-58
2022/07/26 12:48:33;;;;;;;4.55;4.13;;;;;;;20.87;60.04;96616.84;10215999;29;20060;-59
2022/07/26 12:53:52;;;;;;;4.25;3.85;;;;;;;20.87;60.03;96616.06;10216019;29;20059;-58
2022/07/26 12:59:11;;;;;;;4.55;3.90;;;;;;;20.88;60.02;96601.41;10216230;29;20064;-59
2022/07/26 13:04:31;;;;;;;4.25;3.70;;;;;;;20.87;59.85;96595.19;10215716;29;20055;-57
2022/07/26 13:09:50;;;;;;;3.95;3.65;;;;;;;20.88;59.92;96593.28;10215330;29;20461;-58
2022/07/26 13:15:09;;;;;;;4.68;3.75;;;;;;;20.90;59.81;96588.31;10225074;28;20056;-58
2022/07/26 13:20:29;;;;;;;4.25;3.83;;;;;;;20.90;59.70;96591.03;10207678;29;20130;-58
2022/07/26 13:25:48;;;;;;;4.50;3.50;;;;;;;20.89;59.67;96600.25;10214214;29;20585;-58
2022/07/26 13:31:08;;;;;;;4.65;3.78;;;;;;;20.91;59.79;96595.28;10227438;28;20503;-58
2022/07/26 13:36:27;;;;;;;3.88;3.47;;;;;;;20.90;59.79;96588.31;10200256;29;20055;-57
2022/07/26 13:41:46;;;;;;;4.03;3.47;;;;;;;20.90;59.69;96577.47;10213042;29;20055;-58
2022/07/26 13:47:06;;;;;;;3.85;3.22;;;;;;;20.91;59.65;96574.44;10214088;29;20063;-58
2022/07/26 13:52:25;;;;;;;3.45;3.15;;;;;;;20.91;59.40;96570.94;10211650;29;20064;-58
2022/07/26 13:57:45;;;;;;;3.95;3.55;;;;;;;20.92;59.57;96580.66;10226485;28;20060;-58
2022/07/26 14:03:04;;;;;;;4.35;3.30;;;;;;;20.91;59.60;96579.03;10213559;29;20059;-57
2022/07/26 14:08:24;;;;;;;3.30;3.00;;;;;;;20.92;59.59;96591.47;10213362;29;20056;-58
2022/07/26 14:13:44;;;;;;;3.45;3.15;;;;;;;20.92;59.43;96586.06;10213169;29;20066;-57
2022/07/26 14:19:03;;;;;;;3.42;3.13;;;;;;;20.92;59.37;96594.97;10212029;29;20416;-58
2022/07/26 14:24:22;;;;;;;3.38;3.08;;;;;;;20.93;59.34;96603.88;10212573;29;20495;-58
2022/07/26 14:29:44;;;;;;;3.42;2.97;;;;;;;20.93;59.45;96601.16;10225318;28;20048;-57
2022/07/26 14:35:05;;;;;;;3.75;2.90;;;;;;;20.96;59.37;96602.44;10200743;29;20583;-58
2022/07/26 14:40:24;;;;;;;3.25;2.80;;;;;;;20.96;59.36;96597.00;10225141;28;20056;-58
2022/07/26 14:45:46;;;;;;;2.85;2.63;;;;;;;20.96;59.07;96586.19;10212417;29;20063;-58
2022/07/26 14:51:06;;;;;;;2.65;2.45;;;;;;;20.98;59.02;96589.34;10211083;29;20110;-58
2022/07/26 14:56:26;;;;;;;3.25;2.50;;;;;;;20.99;58.81;96590.91;10205977;29;20055;-58
2022/07/26 15:01:46;;;;;;;3.17;2.63;;;;;;;20.99;58.79;96590.91;10220132;29;20063;-58
2022/07/26 15:07:05;;;;;;;3.30;2.97;;;;;;;20.99;58.79;96586.28;10220291;29;20056;-58
2022/07/26 15:12:24;;;;;;;2.85;2.63;;;;;;;20.99;58.96;96591.69;10220006;29;20060;-58
2022/07/26 15:17:43;;;;;;;2.95;2.75;;;;;;;21.01;58.79;96577.81;10208136;29;20503;-58
2022/07/26 15:23:03;;;;;;;3.58;2.35;;;;;;;21.02;58.72;96582.13;10219233;29;20066;-58
2022/07/26 15:28:22;;;;;;;3.67;2.33;;;;;;;21.02;58.62;96580.19;10204641;29;20056;-58
2022/07/26 15:33:42;;;;;;;2.88;2.30;;;;;;;21.05;58.51;96581.41;10210033;29;20059;-58
2022/07/26 15:39:02;;;;;;;2.67;2.42;;;;;;;21.03;58.72;96581.78;10231564;28;20173;-57
2022/07/26 15:44:22;;;;;;;2.88;2.58;;;;;;;21.04;58.76;96582.56;10219266;29;20419;-58
2022/07/26 15:49:41;;;;;;;3.17;2.28;;;;;;;21.04;58.62;96575.22;10216404;29;20052;-57
2022/07/26 15:55:01;;;;;;;2.45;2.25;;;;;;;21.07;58.44;96571.03;10217563;29;20055;-57
2022/07/26 16:00:21;;;;;;;2.90;2.38;;;;;;;21.07;58.70;96574.56;10217422;29;20508;-58
2022/07/26 16:05:40;;;;;;;2.55;2.35;;;;;;;21.09;58.71;96575.00;10229355;28;20559;-58
2022/07/26 16:11:01;;;;;;;2.65;2.40;;;;;;;21.10;58.72;96568.44;10217968;29;20059;-58
2022/07/26 16:16:20;;;;;;;2.45;2.25;;;;;;;21.11;58.65;96566.50;10216894;29;20056;-58
2022/07/26 16:21:40;;;;;;;2.50;2.30;;;;;;;21.13;58.69;96580.53;10216510;29;20563;-57
2022/07/26 16:27:00;;;;;;;2.35;2.13;;;;;;;21.14;58.76;96571.25;10217227;29;20933;-58
2022/07/26 16:32:20;;;;;;;2.60;2.40;;;;;;;21.14;58.64;96580.16;10216956;29;20064;-58
2022/07/26 16:37:40;;;;;;;2.33;2.13;;;;;;;21.13;58.74;96578.59;10229177;29;20056;-57
2022/07/26 16:43:00;;;;;;;2.10;1.90;;;;;;;21.13;58.93;96588.66;10215476;29;20060;-58
2022/07/26 16:48:19;;;;;;;2.72;2.15;;;;;;;21.12;58.82;96584.34;10215658;29;20059;-57
2022/07/26 16:53:39;;;;;;;2.67;2.28;;;;;;;21.13;58.86;96580.53;10215572;29;20060;-58
2022/07/26 16:58:58;;;;;;;2.40;2.20;;;;;;;21.11;58.94;96583.56;10228464;28;20055;-58
2022/07/26 17:04:17;;;;;;;2.50;2.30;;;;;;;21.11;58.99;96582.75;10228623;28;20583;-58
2022/07/26 17:09:37;;;;;;;2.40;1.92;;;;;;;21.11;59.13;96580.88;10215459;29;20055;-58
2022/07/26 17:14:56;;;;;;;2.80;1.95;;;;;;;21.11;58.89;96586.28;10215000;29;20142;-58
2022/07/26 17:20:16;;;;;;;3.30;1.90;;;;;;;21.11;58.90;96588.19;10214561;29;20052;-58
2022/07/26 17:25:35;;;;;;;2.03;1.58;;;;;;;21.12;58.87;96593.25;10214153;29;20063;-58
2022/07/26 17:30:55;;;;;;;2.45;1.85;;;;;;;21.11;58.90;96593.59;10227560;28;20063;-58
2022/07/26 17:36:28;;;;;;;2.08;1.80;;;;;;;21.12;58.96;96597.91;10215084;29;20055;-56
2022/07/26 17:41:47;;;;;;;3.13;1.95;;;;;;;21.13;59.06;96602.22;10213506;29;20083;-58
2022/07/26 17:47:07;;;;;;;1.80;1.58;;;;;;;21.10;59.01;96603.66;10213368;29;20491;-57
2022/07/26 17:52:26;;;;;;;2.53;1.50;;;;;;;21.12;58.99;96606.81;10214009;29;20066;-57
2022/07/26 17:57:47;;;;;;;1.70;1.60;;;;;;;21.11;58.78;96607.16;10205919;29;20062;-58
2022/07/26 18:03:06;;;;;;;1.67;1.58;;;;;;;21.11;58.81;96607.94;10213729;29;20067;-58
2022/07/26 18:08:28;;;;;;;1.70;1.38;;;;;;;21.12;58.66;96604.09;10226130;28;20456;-58
2022/07/26 18:13:47;;;;;;;3.72;1.40;;;;;;;21.12;58.63;96611.44;10212593;29;20060;-58
2022/07/26 18:19:07;;;;;;;1.55;1.35;;;;;;;21.11;58.38;96616.09;10212246;29;20468;-58
2022/07/26 18:24:26;;;;;;;3.35;1.45;;;;;;;21.10;58.19;96622.63;10212921;29;20119;-57
2022/07/26 18:29:45;;;;;;;2.33;1.13;;;;;;;21.11;58.11;96624.22;10212258;29;20059;-58
2022/07/26 18:35:05;;;;;;;1.80;1.30;;;;;;;21.09;57.85;96621.06;10212026;29;20071;-58
2022/07/26 18:40:26;;;;;;;1.98;1.13;;;;;;;21.09;57.92;96629.16;10212404;29;20059;-57
2022/07/26 18:45:45;;;;;;;1.27;1.20;;;;;;;21.08;57.68;96630.28;10211984;29;20067;-58
2022/07/26 18:51:05;;;;;;;1.40;1.30;;;;;;;21.08;57.55;96638.41;10212290;29;20075;-58
2022/07/26 18:56:24;;;;;;;1.50;1.38;;;;;;;21.08;57.44;96643.06;10211560;29;20135;-58
2022/07/26 19:01:43;;;;;;;1.92;1.40;;;;;;;21.07;56.80;96649.56;10212232;29;20083;-58
2022/07/26 19:07:02;;;;;;;1.85;1.52;;;;;;;21.07;56.35;96655.81;10212132;29;20086;-58
2022/07/26 19:12:22;;;;;;;2.35;1.40;;;;;;;21.06;56.00;96656.13;10200910;29;20139;-58
2022/07/26 19:17:41;;;;;;;1.58;1.33;;;;;;;21.06;55.99;96673.16;10211191;29;20052;-58
2022/07/26 19:23:02;;;;;;;1.85;1.48;;;;;;;21.06;55.84;96672.38;10210953;29;20144;-56
2022/07/26 19:28:22;;;;;;;1.75;1.42;;;;;;;21.05;54.91;96692.47;10224110;29;20063;-58
2022/07/26 19:33:42;;;;;;;3.45;1.60;;;;;;;21.05;55.22;96687.84;10201800;29;20096;-58
2022/07/26 19:39:02;;;;;;;1.50;1.40;;;;;;;21.05;55.08;96695.97;10224306;29;20419;-58
2022/07/26 19:44:22;;;;;;;4.75;1.60;;;;;;;21.05;55.39;96697.88;10218739;29;20062;-59
2022/07/26 19:49:42;;;;;;;1.85;1.60;;;;;;;21.04;55.51;96707.94;10206915;29;20056;-57
2022/07/26 19:55:02;;;;;;;1.63;1.40;;;;;;;21.04;55.44;96699.03;10218379;29;20063;-58
2022/07/26 20:00:22;;;;;;;3.60;2.10;;;;;;;21.04;55.17;96707.94;10203797;29;20063;-59
2022/07/26 20:05:41;;;;;;;3.55;2.00;;;;;;;21.03;55.04;96717.19;10218027;29;20399;-58
2022/07/26 20:11:01;;;;;;;3.35;2.40;;;;;;;21.02;55.03;96721.03;10217663;29;20135;-58
2022/07/26 20:16:21;;;;;;;3.20;2.90;;;;;;;21.04;54.83;96723.41;10217272;29;20095;-58
2022/07/26 20:21:40;;;;;;;4.40;3.45;;;;;;;21.02;54.17;96731.84;10217235;29;20063;-58
2022/07/26 20:27:00;;;;;;;4.63;3.53;;;;;;;21.01;53.97;96741.13;10223545;29;20052;-57
2022/07/26 20:32:19;;;;;;;5.50;4.03;;;;;;;21.01;54.54;96746.53;10217067;29;20067;-58
2022/07/26 20:37:40;;;;;;;5.60;4.25;;;;;;;21.00;54.58;96738.75;10216025;29;20062;-58
2022/07/26 20:42:59;;;;;;;4.70;4.28;;;;;;;21.01;54.59;96756.56;10216455;29;20159;-57
2022/07/26 20:48:19;;;;;;;6.07;4.15;;;;;;;21.01;54.45;96762.78;10216202;29;20388;-59
2022/07/26 20:53:38;;;;;;;5.15;4.53;;;;;;;21.00;54.52;96761.19;10215602;29;20060;-59
2022/07/26 20:59:00;;;;;;;6.38;4.30;;;;;;;21.00;54.22;96763.91;10215808;29;20056;-57
2022/07/26 21:04:19;;;;;;;6.13;5.00;;;;;;;21.00;54.13;96774.72;10218227;28;20039;-58
2022/07/26 21:09:39;;;;;;;6.05;4.63;;;;;;;20.99;54.11;96770.41;10214748;29;20428;-58
2022/07/26 21:14:59;;;;;;;5.47;4.70;;;;;;;20.99;54.56;96777.75;10215414;29;20139;-58
2022/07/26 21:20:19;;;;;;;5.68;4.72;;;;;;;20.99;54.46;96775.84;10214534;29;20056;-58
2022/07/26 21:25:39;;;;;;;5.40;4.53;;;;;;;20.98;53.87;96782.41;10215110;29;20569;-54
2022/07/26 21:30:58;;;;;;;5.25;4.68;;;;;;;20.97;54.11;96783.50;10227478;28;20393;-58
2022/07/26 21:36:17;;;;;;;5.40;4.60;;;;;;;20.97;53.92;96791.63;10227345;28;20111;-59
2022/07/26 21:41:37;;;;;;;5.63;4.88;;;;;;;20.97;53.79;96791.63;10226975;28;20052;-58
2022/07/26 21:46:57;;;;;;;5.68;4.70;;;;;;;20.97;53.67;96798.97;10202385;29;20496;-57
2022/07/26 21:52:16;;;;;;;6.43;5.10;;;;;;;20.97;53.39;96801.69;10197353;29;20078;-58
2022/07/26 21:57:35;;;;;;;6.85;5.18;;;;;;;20.96;53.21;96800.91;10226445;28;20058;-57
2022/07/26 22:02:54;;;;;;;7.53;5.28;;;;;;;20.96;53.39;96809.03;10212860;29;20070;-58
2022/07/26 22:08:14;;;;;;;6.38;5.20;;;;;;;20.95;53.36;96810.13;10226096;29;20107;-56
2022/07/26 22:13:34;;;;;;;5.85;4.97;;;;;;;20.95;53.02;96804.72;10213379;29;20082;-58
2022/07/26 22:18:54;;;;;;;6.93;5.30;;;;;;;20.94;53.01;96793.09;10213197;29;20067;-57
2022/07/26 22:24:13;;;;;;;7.60;6.05;;;;;;;20.93;52.97;96793.44;10213222;29;20071;-58
2022/07/26 22:29:32;;;;;;;10.07;6.13;;;;;;;20.93;52.73;96798.84;10212370;29;20056;-58
2022/07/26 22:34:51;;;;;;;6.95;6.30;;;;;;;20.92;52.67;96802.69;10197422;29;20511;-57
2022/07/26 22:40:11;;;;;;;9.70;6.75;;;;;;;20.91;52.66;96806.50;10212035;29;20062;-58
2022/07/26 22:45:32;;;;;;;8.88;7.97;;;;;;;20.90;52.79;96803.03;10212570;29;20059;-58
2022/07/26 22:50:52;;;;;;;10.95;7.68;;;;;;;20.89;52.71;96803.34;10211940;29;20052;-57
2022/07/26 22:56:11;;;;;;;9.75;7.90;;;;;;;20.90;52.74;96804.94;10225001;29;20056;-58
2022/07/26 23:01:30;;;;;;;10.13;9.05;;;;;;;20.89;52.82;96806.06;10213130;29;20052;-57
2022/07/26 23:06:49;;;;;;;11.95;9.23;;;;;;;20.88;52.89;96810.69;10204049;29;20052;-58
2022/07/26 23:12:09;;;;;;;13.73;11.27;;;;;;;20.87;52.90;96800.19;10212705;29;20064;-58
2022/07/26 23:17:28;;;;;;;14.73;11.35;;;;;;;20.87;53.00;96795.53;10210399;29;20063;-58
2022/07/26 23:22:47;;;;;;;13.38;11.07;;;;;;;20.87;53.14;96806.38;10219593;29;20434;-58
2022/07/26 23:28:07;;;;;;;14.40;12.07;;;;;;;20.87;53.15;96794.75;10218730;29;20522;-58
2022/07/26 23:33:26;;;;;;;14.82;12.50;;;;;;;20.86;53.43;96791.28;10219350;29;20056;-58
2022/07/26 23:38:45;;;;;;;17.33;13.05;;;;;;;20.87;53.36;96789.34;10219028;29;20079;-56
2022/07/26 23:44:05;;;;;;;14.02;12.43;;;;;;;20.85;53.29;96784.25;10218687;29;20071;-57
2022/07/26 23:49:25;;;;;;;16.83;13.18;;;;;;;20.85;53.25;96797.00;10218812;29;20070;-58
2022/07/26 23:54:44;;;;;;;16.65;13.95;;;;;;;20.83;53.32;96786.50;10218450;29;20091;-58
